^^
Datos históricos de la estación: Murcia-Puente Tocinos
Diario Informe para Mayo 5, 2019 Unidades:  Ambas    Ingés   Métrico
Diario Semanal Mensual Anual
  Máxima: Mínima: Promedio:
Temperatura: 91.2 °F /  32.9 °C 74.1 °F /  23.4 °C 81.7 °F /  27.6 °C
Punto de rocio: 71.2 °F /  21.8 °C 65.5 °F /  18.6 °C 68.2 °F /  20.1 °C
Humedad: 84% 43% 65%
Velocidad viento: 13mph /  20.9km/h - 5.2mph /  8.4km/h
Racha viento: 22mph /  35.4km/h - -
Viento- - SE
Presión: 30 in /  1015.6 hPa 29.9 in /  1011.3 hPa -
Precipitación: 0 in /  0.0 mm    
 
 
Tabla de datos para Mayo 5, 2019
Hora Temperatura Punto de rocio Presión Viento Velocidad viento Racha viento Humedad Intensidad lluvia(por hora) Nubes
00:00 77.4 °F /  25.2 °C 70.7 °F /  21.5 °C 30in /  1015.5hPa NE 5mph /  8km/h 6mph /  9.7km/h 80% 0in /  0.0mm
00:05 77.4 °F /  25.2 °C 70.7 °F /  21.5 °C 30in /  1015.6hPa NE 5mph /  8km/h 6mph /  9.7km/h 80% 0in /  0.0mm
00:10 77.2 °F /  25.1 °C 70.5 °F /  21.4 °C 30in /  1015.6hPa ENE 3.6mph /  5.8km/h 4.7mph /  7.6km/h 80% 0in /  0.0mm
00:15 77.2 °F /  25.1 °C 70.5 °F /  21.4 °C 30in /  1015.6hPa NE 3mph /  4.8km/h 5mph /  8km/h 80% 0in /  0.0mm
00:20 77.2 °F /  25.1 °C 70.5 °F /  21.4 °C 30in /  1015.5hPa NE 2mph /  3.2km/h 5mph /  8km/h 80% 0in /  0.0mm
00:25 77.2 °F /  25.1 °C 70.5 °F /  21.4 °C 30in /  1015.5hPa NNE 2.9mph /  4.7km/h 3.5mph /  5.6km/h 80% 0in /  0.0mm
00:30 77.4 °F /  25.2 °C 70.7 °F /  21.5 °C 30in /  1015.5hPa NNO 2.9mph /  4.7km/h 3.5mph /  5.6km/h 80% 0in /  0.0mm
00:35 77.4 °F /  25.2 °C 70.7 °F /  21.5 °C 30in /  1015.4hPa North 2mph /  3.2km/h 4mph /  6.4km/h 80% 0in /  0.0mm
00:40 77.4 °F /  25.2 °C 70.7 °F /  21.5 °C 30in /  1015.4hPa NNE 1.8mph /  2.9km/h 3.5mph /  5.6km/h 80% 0in /  0.0mm
00:45 77.4 °F /  25.2 °C 70.7 °F /  21.5 °C 30in /  1015.4hPa NE 2mph /  3.2km/h 5mph /  8km/h 80% 0in /  0.0mm
00:50 77.2 °F /  25.1 °C 70.9 °F /  21.6 °C 30in /  1015.5hPa ENE 2.9mph /  4.7km/h 4.6mph /  7.4km/h 81% 0in /  0.0mm
00:55 77 °F /  25 °C 71.1 °F /  21.7 °C 30in /  1015.5hPa NE 2mph /  3.2km/h 6mph /  9.7km/h 82% 0in /  0.0mm
01:00 77 °F /  25 °C 71.1 °F /  21.7 °C 30in /  1015.5hPa North 3mph /  4.8km/h 5mph /  8km/h 82% 0in /  0.0mm
01:05 76.8 °F /  24.9 °C 70.9 °F /  21.6 °C 30in /  1015.2hPa NNO 3mph /  4.8km/h 5mph /  8km/h 82% 0in /  0.0mm
01:10 76.8 °F /  24.9 °C 70.9 °F /  21.6 °C 30in /  1015.2hPa North 2.9mph /  4.7km/h 2.3mph /  3.7km/h 82% 0in /  0.0mm
01:15 76.8 °F /  24.9 °C 70.9 °F /  21.6 °C 30in /  1015.2hPa NNO 2mph /  3.2km/h 6mph /  9.7km/h 82% 0in /  0.0mm
01:20 76.8 °F /  24.9 °C 71.2 °F /  21.8 °C 30in /  1015.1hPa NNE 2.9mph /  4.7km/h 6.9mph /  11.1km/h 83% 0in /  0.0mm
01:25 76.6 °F /  24.8 °C 71.1 °F /  21.7 °C 30in /  1015.1hPa North 2mph /  3.2km/h 7mph /  11.3km/h 83% 0in /  0.0mm
01:30 76.6 °F /  24.8 °C 71.1 °F /  21.7 °C 30in /  1015.1hPa NNE 3mph /  4.8km/h 5mph /  8km/h 83% 0in /  0.0mm
01:35 76.5 °F /  24.7 °C 71.2 °F /  21.8 °C 30in /  1015.0hPa NNE 3mph /  4.8km/h 5mph /  8km/h 84% 0in /  0.0mm
01:40 76.5 °F /  24.7 °C 71.2 °F /  21.8 °C 30in /  1015.0hPa NNE 3.1mph /  5km/h 2.3mph /  3.7km/h 84% 0in /  0.0mm
01:45 76.5 °F /  24.7 °C 71.2 °F /  21.8 °C 30in /  1015.0hPa NNE 3mph /  4.8km/h 5mph /  8km/h 84% 0in /  0.0mm
01:50 76.3 °F /  24.6 °C 71.1 °F /  21.7 °C 30in /  1015.0hPa NNE 2mph /  3.2km/h 5mph /  8km/h 84% 0in /  0.0mm
01:55 76.3 °F /  24.6 °C 71.1 °F /  21.7 °C 30in /  1015.0hPa NNE 2mph /  3.2km/h 3mph /  4.8km/h 84% 0in /  0.0mm
02:00 76.3 °F /  24.6 °C 71.1 °F /  21.7 °C 30in /  1015.0hPa North 2mph /  3.2km/h 7mph /  11.3km/h 84% 0in /  0.0mm
02:05 76.3 °F /  24.6 °C 71.1 °F /  21.7 °C 30in /  1014.8hPa NO 2mph /  3.2km/h 7mph /  11.3km/h 84% 0in /  0.0mm
02:10 76.1 °F /  24.5 °C 70.9 °F /  21.6 °C 30in /  1014.8hPa ONO 5mph /  8km/h 8mph /  12.9km/h 84% 0in /  0.0mm
02:15 75.9 °F /  24.4 °C 70.7 °F /  21.5 °C 30in /  1014.8hPa ONO 5mph /  8km/h 5mph /  8km/h 84% 0in /  0.0mm
02:20 75.9 °F /  24.4 °C 70.7 °F /  21.5 °C 30in /  1014.7hPa NO 2mph /  3.2km/h 6mph /  9.7km/h 84% 0in /  0.0mm
02:25 75.9 °F /  24.4 °C 70.7 °F /  21.5 °C 30in /  1014.7hPa NNE 2.9mph /  4.7km/h 5.8mph /  9.3km/h 84% 0in /  0.0mm
02:30 75.9 °F /  24.4 °C 70.3 °F /  21.3 °C 30in /  1014.7hPa NNO 3.6mph /  5.8km/h 2.4mph /  3.9km/h 83% 0in /  0.0mm
02:35 75.9 °F /  24.4 °C 70.3 °F /  21.3 °C 30in /  1014.6hPa NO 3mph /  4.8km/h 5mph /  8km/h 83% 0in /  0.0mm
02:40 75.7 °F /  24.3 °C 70.2 °F /  21.2 °C 30in /  1014.6hPa NO 2.9mph /  4.7km/h 5.8mph /  9.3km/h 83% 0in /  0.0mm
02:45 75.7 °F /  24.3 °C 70.2 °F /  21.2 °C 30in /  1014.6hPa ONO 2mph /  3.2km/h 6mph /  9.7km/h 83% 0in /  0.0mm
02:50 75.9 °F /  24.4 °C 70 °F /  21.1 °C 30in /  1014.5hPa ONO 2mph /  3.2km/h 5mph /  8km/h 82% 0in /  0.0mm
02:55 75.9 °F /  24.4 °C 70 °F /  21.1 °C 30in /  1014.5hPa ONO 2mph /  3.2km/h 5mph /  8km/h 82% 0in /  0.0mm
03:00 75.9 °F /  24.4 °C 70 °F /  21.1 °C 30in /  1014.5hPa Oeste 2mph /  3.2km/h 6mph /  9.7km/h 82% 0in /  0.0mm
03:05 75.9 °F /  24.4 °C 70 °F /  21.1 °C 30in /  1014.6hPa SO 2mph /  3.2km/h 6mph /  9.7km/h 82% 0in /  0.0mm
03:10 75.9 °F /  24.4 °C 70 °F /  21.1 °C 30in /  1014.6hPa OSO 2.9mph /  4.7km/h 2.3mph /  3.7km/h 82% 0in /  0.0mm
03:15 76.1 °F /  24.5 °C 69.8 °F /  21 °C 30in /  1014.6hPa Oeste 2mph /  3.2km/h 6mph /  9.7km/h 81% 0in /  0.0mm
03:20 76.1 °F /  24.5 °C 69.8 °F /  21 °C 30in /  1014.2hPa NO 2.9mph /  4.7km/h   81% 0in /  0.0mm
03:25 76.1 °F /  24.5 °C 69.8 °F /  21 °C 30in /  1014.2hPa ONO 2mph /  3.2km/h 5mph /  8km/h 81% 0in /  0.0mm
03:30 75.9 °F /  24.4 °C 69.6 °F /  20.9 °C 30in /  1014.2hPa ONO 2.4mph /  3.9km/h 5.8mph /  9.3km/h 81% 0in /  0.0mm
03:35 75.9 °F /  24.4 °C 70 °F /  21.1 °C 29.9in /  1014.0hPa ONO 2mph /  3.2km/h 7mph /  11.3km/h 82% 0in /  0.0mm
03:40 75.7 °F /  24.3 °C 70 °F /  21.1 °C 29.9in /  1014.0hPa Oeste 4mph /  6.4km/h 6.9mph /  11.1km/h 82% 0in /  0.0mm
03:45 75.7 °F /  24.3 °C 69.8 °F /  21 °C 29.9in /  1014.0hPa Oeste 5mph /  8km/h 7mph /  11.3km/h 82% 0in /  0.0mm
03:50 75.6 °F /  24.2 °C 69.6 °F /  20.9 °C 29.9in /  1014.1hPa Oeste 4mph /  6.4km/h 4.3mph /  6.9km/h 82% 0in /  0.0mm
03:55 75.6 °F /  24.2 °C 70 °F /  21.1 °C 29.9in /  1014.1hPa ONO 5mph /  8km/h 6mph /  9.7km/h 83% 0in /  0.0mm
04:00 75.6 °F /  24.2 °C 70 °F /  21.1 °C 29.9in /  1014.1hPa ONO 2mph /  3.2km/h 5mph /  8km/h 83% 0in /  0.0mm
04:05 75.6 °F /  24.2 °C 70 °F /  21.1 °C 30in /  1014.6hPa OSO 2mph /  3.2km/h 6mph /  9.7km/h 83% 0in /  0.0mm
04:10 75.6 °F /  24.2 °C 69.6 °F /  20.9 °C 30in /  1014.6hPa SO 3.6mph /  5.8km/h 4.6mph /  7.4km/h 82% 0in /  0.0mm
04:15 75.6 °F /  24.2 °C 69.6 °F /  20.9 °C 30in /  1014.6hPa OSO 3mph /  4.8km/h 5mph /  8km/h 82% 0in /  0.0mm
04:20 75.6 °F /  24.2 °C 69.6 °F /  20.9 °C 30in /  1014.2hPa Oeste 2mph /  3.2km/h 2.9mph /  4.7km/h 82% 0in /  0.0mm
04:25 75.6 °F /  24.2 °C 69.3 °F /  20.7 °C 30in /  1014.2hPa Oeste 2mph /  3.2km/h 5mph /  8km/h 81% 0in /  0.0mm
04:30 75.6 °F /  24.2 °C 69.3 °F /  20.7 °C 30in /  1014.2hPa SO 2.9mph /  4.7km/h   81% 0in /  0.0mm
04:35 75.6 °F /  24.2 °C 69.3 °F /  20.7 °C 29.9in /  1014.0hPa OSO 2mph /  3.2km/h 4mph /  6.4km/h 81% 0in /  0.0mm
04:40 75.7 °F /  24.3 °C 69.4 °F /  20.8 °C 29.9in /  1014.0hPa Oeste 1mph /  1.6km/h 3mph /  4.8km/h 81% 0in /  0.0mm
04:45 75.7 °F /  24.3 °C 69.4 °F /  20.8 °C 29.9in /  1014.0hPa NO 1mph /  1.6km/h 4mph /  6.4km/h 81% 0in /  0.0mm
04:50 75.6 °F /  24.2 °C 69.3 °F /  20.7 °C 29.9in /  1014.1hPa Oeste 1.8mph /  2.9km/h 3.5mph /  5.6km/h 81% 0in /  0.0mm
04:55 75.6 °F /  24.2 °C 69.3 °F /  20.7 °C 29.9in /  1014.1hPa OSO 2mph /  3.2km/h 6mph /  9.7km/h 81% 0in /  0.0mm
05:00 75.4 °F /  24.1 °C 69.1 °F /  20.6 °C 29.9in /  1014.1hPa OSO 3mph /  4.8km/h 7mph /  11.3km/h 81% 0in /  0.0mm
05:05 75.4 °F /  24.1 °C 69.1 °F /  20.6 °C 29.9in /  1014.0hPa SO 3mph /  4.8km/h 6mph /  9.7km/h 81% 0in /  0.0mm
05:10 75.4 °F /  24.1 °C 69.1 °F /  20.6 °C 29.9in /  1014.0hPa OSO 3.6mph /  5.8km/h 3.5mph /  5.6km/h 81% 0in /  0.0mm
05:15 75.4 °F /  24.1 °C 69.1 °F /  20.6 °C 29.9in /  1014.0hPa SO 3mph /  4.8km/h 5mph /  8km/h 81% 0in /  0.0mm
05:20 75.2 °F /  24 °C 68.5 °F /  20.3 °C 29.9in /  1014.0hPa SSO 3mph /  4.8km/h 6mph /  9.7km/h 80% 0in /  0.0mm
05:25 75 °F /  23.9 °C 68.4 °F /  20.2 °C 29.9in /  1014.0hPa Sur 3mph /  4.8km/h 7mph /  11.3km/h 80% 0in /  0.0mm
05:30 75 °F /  23.9 °C 68.4 °F /  20.2 °C 29.9in /  1014.0hPa SSE 4.3mph /  6.9km/h 4.6mph /  7.4km/h 80% 0in /  0.0mm
05:35 74.8 °F /  23.8 °C 68.4 °F /  20.2 °C 29.9in /  1013.8hPa Sur 5mph /  8km/h 5mph /  8km/h 80% 0in /  0.0mm
05:40 74.8 °F /  23.8 °C 68.4 °F /  20.2 °C 29.9in /  1013.8hPa SSE 3.1mph /  5km/h 5.8mph /  9.3km/h 80% 0in /  0.0mm
05:45 74.8 °F /  23.8 °C 68.4 °F /  20.2 °C 29.9in /  1013.8hPa SSE 3mph /  4.8km/h 6mph /  9.7km/h 80% 0in /  0.0mm
05:50 74.8 °F /  23.8 °C 68.4 °F /  20.2 °C 30in /  1014.2hPa Sur 2mph /  3.2km/h 6mph /  9.7km/h 80% 0in /  0.0mm
05:55 74.8 °F /  23.8 °C 68.4 °F /  20.2 °C 30in /  1014.2hPa Sur 2mph /  3.2km/h 5mph /  8km/h 80% 0in /  0.0mm
06:00 74.8 °F /  23.8 °C 67.8 °F /  19.9 °C 30in /  1014.2hPa SSO 2mph /  3.2km/h 3mph /  4.8km/h 79% 0in /  0.0mm
06:05 74.8 °F /  23.8 °C 67.8 °F /  19.9 °C 30in /  1014.2hPa SSO 2mph /  3.2km/h 5mph /  8km/h 79% 0in /  0.0mm
06:10 74.8 °F /  23.8 °C 67.8 °F /  19.9 °C 30in /  1014.2hPa SSO 1.8mph /  2.9km/h   79% 0in /  0.0mm
06:15 74.8 °F /  23.8 °C 67.8 °F /  19.9 °C 30in /  1014.2hPa SO 2mph /  3.2km/h 6mph /  9.7km/h 79% 0in /  0.0mm
06:20 75 °F /  23.9 °C 67.6 °F /  19.8 °C 30in /  1014.3hPa SO 2.9mph /  4.7km/h 6.9mph /  11.1km/h 78% 0in /  0.0mm
06:25 75 °F /  23.9 °C 67.6 °F /  19.8 °C 30in /  1014.3hPa SO 2mph /  3.2km/h 7mph /  11.3km/h 78% 0in /  0.0mm
06:30 75 °F /  23.9 °C 67.6 °F /  19.8 °C 30in /  1014.3hPa ONO 3.6mph /  5.8km/h 4.6mph /  7.4km/h 78% 0in /  0.0mm
06:35 74.8 °F /  23.8 °C 67.5 °F /  19.7 °C 30in /  1014.4hPa Oeste 3mph /  4.8km/h 6mph /  9.7km/h 78% 0in /  0.0mm
06:40 74.7 °F /  23.7 °C 67.3 °F /  19.6 °C 30in /  1014.4hPa Oeste 3mph /  4.8km/h 6mph /  9.7km/h 78% 0in /  0.0mm
06:45 74.5 °F /  23.6 °C 67.3 °F /  19.6 °C 30in /  1014.4hPa ONO 3mph /  4.8km/h 3mph /  4.8km/h 78% 0in /  0.0mm
06:50 74.5 °F /  23.6 °C 67.3 °F /  19.6 °C 30in /  1014.6hPa ONO 1mph /  1.6km/h 5mph /  8km/h 78% 0in /  0.0mm
06:55 74.3 °F /  23.5 °C 66.9 °F /  19.4 °C 30in /  1014.6hPa ONO 1mph /  1.6km/h 5mph /  8km/h 78% 0in /  0.0mm
07:00 74.3 °F /  23.5 °C 66.9 °F /  19.4 °C 30in /  1014.6hPa Oeste 2mph /  3.2km/h 4mph /  6.4km/h 78% 0in /  0.0mm
07:05 74.5 °F /  23.6 °C 67.3 °F /  19.6 °C 30in /  1015.0hPa Sur 2.4mph /  3.9km/h 5.8mph /  9.3km/h 78% 0in /  0.0mm
07:10 74.5 °F /  23.6 °C 67.3 °F /  19.6 °C 30in /  1015.0hPa SSE 3.6mph /  5.8km/h 6.9mph /  11.1km/h 78% 0in /  0.0mm
07:15 74.3 °F /  23.5 °C 67.5 °F /  19.7 °C 30in /  1015.0hPa Sur 3mph /  4.8km/h 7mph /  11.3km/h 79% 0in /  0.0mm
07:20 74.1 °F /  23.4 °C 67.3 °F /  19.6 °C 30in /  1014.9hPa Sur 3.1mph /  5km/h 4.6mph /  7.4km/h 79% 0in /  0.0mm
07:25 74.1 °F /  23.4 °C 67.3 °F /  19.6 °C 30in /  1014.9hPa Sur 3mph /  4.8km/h 5mph /  8km/h 79% 0in /  0.0mm
07:30 74.1 °F /  23.4 °C 67.3 °F /  19.6 °C 30in /  1014.9hPa Sur 2mph /  3.2km/h 2.3mph /  3.7km/h 79% 0in /  0.0mm
07:35 74.3 °F /  23.5 °C 66.9 °F /  19.4 °C 30in /  1015.1hPa SSO 2mph /  3.2km/h 4.6mph /  7.4km/h 78% 0in /  0.0mm
07:40 74.3 °F /  23.5 °C 66.9 °F /  19.4 °C 30in /  1015.1hPa Oeste 2.9mph /  4.7km/h 4.6mph /  7.4km/h 78% 0in /  0.0mm
07:45 74.5 °F /  23.6 °C 67.3 °F /  19.6 °C 30in /  1015.1hPa ONO 2mph /  3.2km/h 5mph /  8km/h 78% 0in /  0.0mm
07:50 74.7 °F /  23.7 °C 67.3 °F /  19.6 °C 30in /  1015.1hPa NO 2mph /  3.2km/h 1.2mph /  1.9km/h 78% 0in /  0.0mm
07:55 74.8 °F /  23.8 °C 67.1 °F /  19.5 °C 30in /  1015.1hPa NO 2mph /  3.2km/h 5mph /  8km/h 77% 0in /  0.0mm
08:00 74.8 °F /  23.8 °C 67.1 °F /  19.5 °C 30in /  1015.1hPa NO 2mph /  3.2km/h 5mph /  8km/h 77% 0in /  0.0mm
08:05 75 °F /  23.9 °C 66.9 °F /  19.4 °C 30in /  1015.0hPa NO 2mph /  3.2km/h 5mph /  8km/h 76% 0in /  0.0mm
08:10 75 °F /  23.9 °C 66.6 °F /  19.2 °C 30in /  1015.0hPa NO 2mph /  3.2km/h 5mph /  8km/h 75% 0in /  0.0mm
08:15 75.2 °F /  24 °C 66.7 °F /  19.3 °C 30in /  1015.0hPa ONO 2mph /  3.2km/h 3mph /  4.8km/h 75% 0in /  0.0mm
08:20 75.4 °F /  24.1 °C 66.6 °F /  19.2 °C 30in /  1015.3hPa ONO 2mph /  3.2km/h 5mph /  8km/h 74% 0in /  0.0mm
08:25 75.6 °F /  24.2 °C 66.7 °F /  19.3 °C 30in /  1015.3hPa ONO 2mph /  3.2km/h 5mph /  8km/h 74% 0in /  0.0mm
08:30 75.6 °F /  24.2 °C 66.7 °F /  19.3 °C 30in /  1015.3hPa ONO 2.4mph /  3.9km/h 3.5mph /  5.6km/h 74% 0in /  0.0mm
08:35 75.6 °F /  24.2 °C 66.4 °F /  19.1 °C 30in /  1015.1hPa ONO 2.4mph /  3.9km/h 4.6mph /  7.4km/h 73% 0in /  0.0mm
08:40 75.6 °F /  24.2 °C 66.4 °F /  19.1 °C 30in /  1015.1hPa Oeste 2.9mph /  4.7km/h 5.8mph /  9.3km/h 73% 0in /  0.0mm
08:45 75.7 °F /  24.3 °C 66.6 °F /  19.2 °C 30in /  1015.1hPa ONO 2mph /  3.2km/h 6mph /  9.7km/h 73% 0in /  0.0mm
08:50 75.9 °F /  24.4 °C 66.6 °F /  19.2 °C 30in /  1015.2hPa Oeste 2.4mph /  3.9km/h 2.3mph /  3.7km/h 73% 0in /  0.0mm
08:55 76.1 °F /  24.5 °C 66.7 °F /  19.3 °C 30in /  1015.2hPa Oeste 2mph /  3.2km/h 5mph /  8km/h 73% 0in /  0.0mm
09:00 76.3 °F /  24.6 °C 66.9 °F /  19.4 °C 30in /  1015.2hPa ONO 2mph /  3.2km/h 5mph /  8km/h 73% 0in /  0.0mm
09:05 76.5 °F /  24.7 °C 66.7 °F /  19.3 °C 30in /  1015.2hPa NO 2mph /  3.2km/h 5mph /  8km/h 72% 0in /  0.0mm
09:10 76.6 °F /  24.8 °C 66.9 °F /  19.4 °C 30in /  1015.2hPa NO 2.4mph /  3.9km/h   72% 0in /  0.0mm
09:15 76.8 °F /  24.9 °C 66.7 °F /  19.3 °C 30in /  1015.2hPa NO 2mph /  3.2km/h 2mph /  3.2km/h 71% 0in /  0.0mm
09:20 77.2 °F /  25.1 °C 66.9 °F /  19.4 °C 30in /  1015.3hPa SSE 1.4mph /  2.3km/h 2.4mph /  3.9km/h 71% 0in /  0.0mm
09:25 77.4 °F /  25.2 °C 66.7 °F /  19.3 °C 30in /  1015.3hPa SO 1mph /  1.6km/h 5mph /  8km/h 70% 0in /  0.0mm
09:30 77.7 °F /  25.4 °C 67.3 °F /  19.6 °C 30in /  1015.3hPa NO 2mph /  3.2km/h 3.5mph /  5.6km/h 70% 0in /  0.0mm
09:35 77.9 °F /  25.5 °C 66.9 °F /  19.4 °C 30in /  1015.4hPa SSO 2mph /  3.2km/h 7mph /  11.3km/h 69% 0in /  0.0mm
09:40 77.7 °F /  25.4 °C 66.7 °F /  19.3 °C 30in /  1015.4hPa SO 4mph /  6.4km/h 6.9mph /  11.1km/h 69% 0in /  0.0mm
09:45 77.7 °F /  25.4 °C 66.7 °F /  19.3 °C 30in /  1015.4hPa Sur 5mph /  8km/h 7mph /  11.3km/h 69% 0in /  0.0mm
09:50 78.1 °F /  25.6 °C 66.9 °F /  19.4 °C 30in /  1015.2hPa Sur 5mph /  8km/h 7mph /  11.3km/h 69% 0in /  0.0mm
09:55 78.3 °F /  25.7 °C 67.3 °F /  19.6 °C 30in /  1015.2hPa Sur 5mph /  8km/h 7mph /  11.3km/h 69% 0in /  0.0mm
10:00 78.1 °F /  25.6 °C 67.1 °F /  19.5 °C 30in /  1015.2hPa Sur 5mph /  8km/h 6mph /  9.7km/h 69% 0in /  0.0mm
10:05 78.4 °F /  25.8 °C 67.5 °F /  19.7 °C 30in /  1015.1hPa SE 5mph /  8km/h 5mph /  8km/h 69% 0in /  0.0mm
10:10 79 °F /  26.1 °C 67.5 °F /  19.7 °C 30in /  1015.1hPa SSE 2mph /  3.2km/h 8mph /  12.9km/h 68% 0in /  0.0mm
10:15 79 °F /  26.1 °C 67.5 °F /  19.7 °C 30in /  1015.1hPa OSO 2mph /  3.2km/h 7mph /  11.3km/h 68% 0in /  0.0mm
10:20 79 °F /  26.1 °C 67.5 °F /  19.7 °C 30in /  1015.2hPa SSO 5mph /  8km/h 7mph /  11.3km/h 68% 0in /  0.0mm
10:25 79.2 °F /  26.2 °C 67.6 °F /  19.8 °C 30in /  1015.2hPa SSE 5mph /  8km/h 7mph /  11.3km/h 68% 0in /  0.0mm
10:30 79.5 °F /  26.4 °C 67.6 °F /  19.8 °C 30in /  1015.2hPa SSE 2mph /  3.2km/h 9mph /  14.5km/h 67% 0in /  0.0mm
10:35 79.5 °F /  26.4 °C 67.3 °F /  19.6 °C 30in /  1015.3hPa SSE 2mph /  3.2km/h 8mph /  12.9km/h 66% 0in /  0.0mm
10:40 79.5 °F /  26.4 °C 67.3 °F /  19.6 °C 30in /  1015.3hPa Sur 5mph /  8km/h 8mph /  12.9km/h 66% 0in /  0.0mm
10:45 79.9 °F /  26.6 °C 67.5 °F /  19.7 °C 30in /  1015.3hPa Sur 5mph /  8km/h 6mph /  9.7km/h 66% 0in /  0.0mm
10:50 80.2 °F /  26.8 °C 67.5 °F /  19.7 °C 30in /  1015.2hPa SO 2.9mph /  4.7km/h 4.6mph /  7.4km/h 65% 0in /  0.0mm
10:55 80.6 °F /  27 °C 67.3 °F /  19.6 °C 30in /  1015.2hPa SSE 2mph /  3.2km/h 9mph /  14.5km/h 64% 0in /  0.0mm
11:00 80.4 °F /  26.9 °C 67.3 °F /  19.6 °C 30in /  1015.2hPa SSO 3mph /  4.8km/h 5mph /  8km/h 64% 0in /  0.0mm
11:05 81.1 °F /  27.3 °C 67.3 °F /  19.6 °C 30in /  1015.1hPa Sur 3mph /  4.8km/h 7mph /  11.3km/h 63% 0in /  0.0mm
11:10 81.3 °F /  27.4 °C 67.5 °F /  19.7 °C 30in /  1015.1hPa SE 3.1mph /  5km/h 5.4mph /  8.7km/h 63% 0in /  0.0mm
11:15 81.7 °F /  27.6 °C 67.5 °F /  19.7 °C 30in /  1015.1hPa SE 3mph /  4.8km/h 8mph /  12.9km/h 62% 0in /  0.0mm
11:20 81.3 °F /  27.4 °C 66.6 °F /  19.2 °C 30in /  1015.0hPa ESE 5mph /  8km/h 8mph /  12.9km/h 61% 0in /  0.0mm
11:25 81.7 °F /  27.6 °C 67.5 °F /  19.7 °C 30in /  1015.0hPa Este 5mph /  8km/h 7mph /  11.3km/h 62% 0in /  0.0mm
11:30 82 °F /  27.8 °C 66.7 °F /  19.3 °C 30in /  1015.0hPa SE 4.3mph /  6.9km/h 6.9mph /  11.1km/h 60% 0in /  0.0mm
11:35 82 °F /  27.8 °C 66.7 °F /  19.3 °C 30in /  1015.0hPa ESE 5mph /  8km/h 9mph /  14.5km/h 60% 0in /  0.0mm
11:40 82.2 °F /  27.9 °C 67.5 °F /  19.7 °C 30in /  1015.0hPa NNE 4.3mph /  6.9km/h 4.6mph /  7.4km/h 61% 0in /  0.0mm
11:45 82.8 °F /  28.2 °C 66.4 °F /  19.1 °C 30in /  1015.0hPa ESE 5mph /  8km/h 8mph /  12.9km/h 58% 0in /  0.0mm
11:50 82.8 °F /  28.2 °C 66.6 °F /  19.2 °C 30in /  1015.1hPa North 4mph /  6.4km/h 5.8mph /  9.3km/h 58% 0in /  0.0mm
11:55 82.8 °F /  28.2 °C 66.6 °F /  19.2 °C 30in /  1015.1hPa NE 5mph /  8km/h 6mph /  9.7km/h 58% 0in /  0.0mm
12:00 83.1 °F /  28.4 °C 66.7 °F /  19.3 °C 30in /  1015.1hPa NNE 3mph /  4.8km/h 7mph /  11.3km/h 58% 0in /  0.0mm
12:05 83.7 °F /  28.7 °C 67.3 °F /  19.6 °C 30in /  1015.0hPa NNE 3mph /  4.8km/h 6mph /  9.7km/h 58% 0in /  0.0mm
12:10 83.7 °F /  28.7 °C 66.4 °F /  19.1 °C 30in /  1015.0hPa NNO 3mph /  4.8km/h 6mph /  9.7km/h 56% 0in /  0.0mm
12:15 83.8 °F /  28.8 °C 66.6 °F /  19.2 °C 30in /  1015.0hPa SE 3.1mph /  5km/h 4.6mph /  7.4km/h 56% 0in /  0.0mm
12:20 84.4 °F /  29.1 °C 65.8 °F /  18.8 °C 30in /  1014.9hPa ENE 3.1mph /  5km/h 6.9mph /  11.1km/h 54% 0in /  0.0mm
12:25 84.4 °F /  29.1 °C 65.8 °F /  18.8 °C 30in /  1014.9hPa NNE 3mph /  4.8km/h 7mph /  11.3km/h 54% 0in /  0.0mm
12:30 84.6 °F /  29.2 °C 65.5 °F /  18.6 °C 30in /  1014.9hPa NNE 4mph /  6.4km/h 5.8mph /  9.3km/h 53% 0in /  0.0mm
12:35 84.7 °F /  29.3 °C 65.7 °F /  18.7 °C 30in /  1014.8hPa NNE 5mph /  8km/h 7mph /  11.3km/h 53% 0in /  0.0mm
12:40 84.7 °F /  29.3 °C 66.4 °F /  19.1 °C 30in /  1014.8hPa NE 5mph /  8km/h 12mph /  19.3km/h 54% 0in /  0.0mm
12:45 84.6 °F /  29.2 °C 66.6 °F /  19.2 °C 30in /  1014.8hPa NNE 5mph /  8km/h 12mph /  19.3km/h 55% 0in /  0.0mm
12:50 84.9 °F /  29.4 °C 66.9 °F /  19.4 °C 30in /  1014.7hPa NNO 4.7mph /  7.6km/h 6.4mph /  10.3km/h 55% 0in /  0.0mm
12:55 85.3 °F /  29.6 °C 66.7 °F /  19.3 °C 30in /  1014.7hPa NNE 5mph /  8km/h 8mph /  12.9km/h 54% 0in /  0.0mm
13:00 85.3 °F /  29.6 °C 67.3 °F /  19.6 °C 30in /  1014.7hPa NE 5mph /  8km/h 7mph /  11.3km/h 55% 0in /  0.0mm
13:05 85.5 °F /  29.7 °C 66.9 °F /  19.4 °C 30in /  1014.7hPa NE 5mph /  8km/h 12mph /  19.3km/h 54% 0in /  0.0mm
13:10 85.6 °F /  29.8 °C 67.1 °F /  19.5 °C 30in /  1014.7hPa NE 4.7mph /  7.6km/h 4.6mph /  7.4km/h 54% 0in /  0.0mm
13:15 86 °F /  30 °C 67.5 °F /  19.7 °C 30in /  1014.7hPa ESE 5mph /  8km/h 10mph /  16.1km/h 54% 0in /  0.0mm
13:20 86 °F /  30 °C 67.5 °F /  19.7 °C 30in /  1014.5hPa ENE 5.2mph /  8.4km/h 10.4mph /  16.7km/h 54% 0in /  0.0mm
13:25 86.2 °F /  30.1 °C 68.2 °F /  20.1 °C 30in /  1014.5hPa NE 5mph /  8km/h 10mph /  16.1km/h 55% 0in /  0.0mm
13:30 86.5 °F /  30.3 °C 67.5 °F /  19.7 °C 30in /  1014.5hPa NE 5mph /  8km/h 11mph /  17.7km/h 53% 0in /  0.0mm
13:35 86.5 °F /  30.3 °C 67.8 °F /  19.9 °C 30in /  1014.4hPa NNE 5mph /  8km/h 9mph /  14.5km/h 54% 0in /  0.0mm
13:40 86.9 °F /  30.5 °C 68.4 °F /  20.2 °C 30in /  1014.4hPa NNE 6mph /  9.7km/h 13mph /  20.9km/h 54% 0in /  0.0mm
13:45 87.1 °F /  30.6 °C 67.8 °F /  19.9 °C 30in /  1014.4hPa NNE 6mph /  9.7km/h 13mph /  20.9km/h 53% 0in /  0.0mm
13:50 87.1 °F /  30.6 °C 67.8 °F /  19.9 °C 30in /  1014.2hPa NE 6mph /  9.7km/h 10mph /  16.1km/h 53% 0in /  0.0mm
13:55 87.4 °F /  30.8 °C 67.6 °F /  19.8 °C 30in /  1014.2hPa NNE 6mph /  9.7km/h 11mph /  17.7km/h 52% 0in /  0.0mm
14:00 87.8 °F /  31 °C 66.7 °F /  19.3 °C 30in /  1014.2hPa NNE 7mph /  11.3km/h 13mph /  20.9km/h 50% 0in /  0.0mm
14:05 88.2 °F /  31.2 °C 67.3 °F /  19.6 °C 29.9in /  1014.1hPa NE 7mph /  11.3km/h 15mph /  24.1km/h 50% 0in /  0.0mm
14:10 88 °F /  31.1 °C 66.9 °F /  19.4 °C 29.9in /  1014.1hPa North 8.1mph /  13km/h 12.7mph /  20.4km/h 50% 0in /  0.0mm
14:15 88.2 °F /  31.2 °C 67.8 °F /  19.9 °C 29.9in /  1014.1hPa NE 8.1mph /  13km/h 9.2mph /  14.8km/h 51% 0in /  0.0mm
14:20 88.3 °F /  31.3 °C 67.3 °F /  19.6 °C 29.9in /  1013.9hPa NE 7.6mph /  12.2km/h 12.7mph /  20.4km/h 50% 0in /  0.0mm
14:25 88.3 °F /  31.3 °C 67.8 °F /  19.9 °C 29.9in /  1013.9hPa NE 8mph /  12.9km/h 17mph /  27.4km/h 51% 0in /  0.0mm
14:30 88.3 °F /  31.3 °C 67.8 °F /  19.9 °C 29.9in /  1013.9hPa NE 9.2mph /  14.8km/h 18.4mph /  29.6km/h 51% 0in /  0.0mm
14:35 88.5 °F /  31.4 °C 67.6 °F /  19.8 °C 29.9in /  1013.8hPa NE 9mph /  14.5km/h 16mph /  25.7km/h 50% 0in /  0.0mm
14:40 89.1 °F /  31.7 °C 68 °F /  20 °C 29.9in /  1013.8hPa NE 7mph /  11.3km/h 15mph /  24.1km/h 50% 0in /  0.0mm
14:45 89.2 °F /  31.8 °C 68.2 °F /  20.1 °C 29.9in /  1013.8hPa NE 7mph /  11.3km/h 13mph /  20.9km/h 50% 0in /  0.0mm
14:50 89.1 °F /  31.7 °C 68 °F /  20 °C 29.9in /  1013.7hPa ENE 8.1mph /  13km/h 9.2mph /  14.8km/h 50% 0in /  0.0mm
14:55 89.2 °F /  31.8 °C 68.2 °F /  20.1 °C 29.9in /  1013.7hPa NE 8mph /  12.9km/h 17mph /  27.4km/h 50% 0in /  0.0mm
15:00 89.8 °F /  32.1 °C 68.2 °F /  20.1 °C 29.9in /  1013.7hPa NE 8mph /  12.9km/h 15mph /  24.1km/h 49% 0in /  0.0mm
15:05 90.1 °F /  32.3 °C 67.8 °F /  19.9 °C 29.9in /  1013.6hPa NE 8mph /  12.9km/h 13mph /  20.9km/h 48% 0in /  0.0mm
15:10 90 °F /  32.2 °C 66.9 °F /  19.4 °C 29.9in /  1013.6hPa NNE 8.5mph /  13.7km/h 20.7mph /  33.3km/h 47% 0in /  0.0mm
15:15 89.6 °F /  32 °C 67.3 °F /  19.6 °C 29.9in /  1013.6hPa NE 8mph /  12.9km/h 21mph /  33.8km/h 48% 0in /  0.0mm
15:20 89.8 °F /  32.1 °C 66.9 °F /  19.4 °C 29.9in /  1013.4hPa NE 10mph /  16.1km/h 17mph /  27.4km/h 47% 0in /  0.0mm
15:25 90 °F /  32.2 °C 66.9 °F /  19.4 °C 29.9in /  1013.4hPa ESE 10.2mph /  16.4km/h 12.7mph /  20.4km/h 47% 0in /  0.0mm
15:30 90.3 °F /  32.4 °C 67.5 °F /  19.7 °C 29.9in /  1013.4hPa NNE 9.2mph /  14.8km/h 15mph /  24.1km/h 47% 0in /  0.0mm
15:35 90.3 °F /  32.4 °C 67.3 °F /  19.6 °C 29.9in /  1013.2hPa NE 9mph /  14.5km/h 17mph /  27.4km/h 47% 0in /  0.0mm
15:40 90 °F /  32.2 °C 66.9 °F /  19.4 °C 29.9in /  1013.2hPa NE 8.7mph /  14km/h 20.7mph /  33.3km/h 47% 0in /  0.0mm
15:45 90.1 °F /  32.3 °C 67.3 °F /  19.6 °C 29.9in /  1013.2hPa NE 9mph /  14.5km/h 17mph /  27.4km/h 47% 0in /  0.0mm
15:50 90.1 °F /  32.3 °C 67.3 °F /  19.6 °C 29.9in /  1013.3hPa ENE 11.2mph /  18km/h 12.7mph /  20.4km/h 47% 0in /  0.0mm
15:55 90.5 °F /  32.5 °C 67.5 °F /  19.7 °C 29.9in /  1013.3hPa NE 12mph /  19.3km/h 15mph /  24.1km/h 47% 0in /  0.0mm
16:00 90.7 °F /  32.6 °C 67.1 °F /  19.5 °C 29.9in /  1013.3hPa NE 9mph /  14.5km/h 17mph /  27.4km/h 46% 0in /  0.0mm
16:05 90.3 °F /  32.4 °C 67.3 °F /  19.6 °C 29.9in /  1013.0hPa NE 9mph /  14.5km/h 21mph /  33.8km/h 47% 0in /  0.0mm
16:10 90.3 °F /  32.4 °C 66.7 °F /  19.3 °C 29.9in /  1013.0hPa ENE 11.2mph /  18km/h 17.3mph /  27.8km/h 46% 0in /  0.0mm
16:15 90.5 °F /  32.5 °C 66.9 °F /  19.4 °C 29.9in /  1013.0hPa NE 12mph /  19.3km/h 19mph /  30.6km/h 46% 0in /  0.0mm
16:20 90.3 °F /  32.4 °C 66.7 °F /  19.3 °C 29.9in /  1012.7hPa NE 11.8mph /  19km/h 15mph /  24.1km/h 46% 0in /  0.0mm
16:25 90.7 °F /  32.6 °C 66.4 °F /  19.1 °C 29.9in /  1012.7hPa NE 12mph /  19.3km/h 17mph /  27.4km/h 45% 0in /  0.0mm
16:30 90.7 °F /  32.6 °C 66.4 °F /  19.1 °C 29.9in /  1012.7hPa NE 10mph /  16.1km/h 12.7mph /  20.4km/h 45% 0in /  0.0mm
16:35 91 °F /  32.8 °C 66.7 °F /  19.3 °C 29.9in /  1012.6hPa NE 10mph /  16.1km/h 17mph /  27.4km/h 45% 0in /  0.0mm
16:40 90.9 °F /  32.7 °C 65.8 °F /  18.8 °C 29.9in /  1012.6hPa NE 10mph /  16.1km/h 17mph /  27.4km/h 44% 0in /  0.0mm
16:45 90.7 °F /  32.6 °C 65.8 °F /  18.8 °C 29.9in /  1012.6hPa NE 10mph /  16.1km/h 19mph /  30.6km/h 44% 0in /  0.0mm
16:50 90.7 °F /  32.6 °C 66.4 °F /  19.1 °C 29.9in /  1012.3hPa Este 11.2mph /  18km/h 16.1mph /  25.9km/h 45% 0in /  0.0mm
16:55 90.9 °F /  32.7 °C 65.8 °F /  18.8 °C 29.9in /  1012.3hPa NE 12mph /  19.3km/h 16mph /  25.7km/h 44% 0in /  0.0mm
17:00 91 °F /  32.8 °C 66 °F /  18.9 °C 29.9in /  1012.3hPa NE 10mph /  16.1km/h 20mph /  32.2km/h 44% 0in /  0.0mm
17:05 90.9 °F /  32.7 °C 65.8 °F /  18.8 °C 29.9in /  1012.2hPa NE 10mph /  16.1km/h 16mph /  25.7km/h 44% 0in /  0.0mm
17:10 91.2 °F /  32.9 °C 66.4 °F /  19.1 °C 29.9in /  1012.2hPa NE 10mph /  16.1km/h 17mph /  27.4km/h 44% 0in /  0.0mm
17:15 90.7 °F /  32.6 °C 65.7 °F /  18.7 °C 29.9in /  1012.2hPa NE 10mph /  16.1km/h 21mph /  33.8km/h 44% 0in /  0.0mm
17:20 90.7 °F /  32.6 °C 65.8 °F /  18.8 °C 29.9in /  1012.0hPa Este 12.5mph /  20.1km/h 12.7mph /  20.4km/h 44% 0in /  0.0mm
17:25 91 °F /  32.8 °C 65.5 °F /  18.6 °C 29.9in /  1012.0hPa NE 13mph /  20.9km/h 17mph /  27.4km/h 43% 0in /  0.0mm
17:30 90.7 °F /  32.6 °C 66.4 °F /  19.1 °C 29.9in /  1012.0hPa NE 11.4mph /  18.3km/h 16.1mph /  25.9km/h 45% 0in /  0.0mm
17:35 90.7 °F /  32.6 °C 66.4 °F /  19.1 °C 29.9in /  1011.9hPa NE 11.4mph /  18.3km/h 13.8mph /  22.2km/h 45% 0in /  0.0mm
17:40 90.5 °F /  32.5 °C 66.4 °F /  19.1 °C 29.9in /  1011.9hPa NNE 11.8mph /  19km/h 15mph /  24.1km/h 45% 0in /  0.0mm
17:45 90.7 °F /  32.6 °C 66.6 °F /  19.2 °C 29.9in /  1011.9hPa NE 12mph /  19.3km/h 19mph /  30.6km/h 45% 0in /  0.0mm
17:50 90.7 °F /  32.6 °C 66.4 °F /  19.1 °C 29.9in /  1011.6hPa NNE 10mph /  16.1km/h 21.9mph /  35.2km/h 45% 0in /  0.0mm
17:55 90.5 °F /  32.5 °C 66.4 °F /  19.1 °C 29.9in /  1011.6hPa NE 10mph /  16.1km/h 22mph /  35.4km/h 45% 0in /  0.0mm
18:00 90.5 °F /  32.5 °C 66.4 °F /  19.1 °C 29.9in /  1011.6hPa NE 12mph /  19.3km/h 17mph /  27.4km/h 45% 0in /  0.0mm
18:05 90.3 °F /  32.4 °C 66.7 °F /  19.3 °C 29.9in /  1011.9hPa NE 12mph /  19.3km/h 17mph /  27.4km/h 46% 0in /  0.0mm
18:10 90.3 °F /  32.4 °C 66.7 °F /  19.3 °C 29.9in /  1011.9hPa NNE 11.4mph /  18.3km/h 20.7mph /  33.3km/h 46% 0in /  0.0mm
18:15 90 °F /  32.2 °C 66.9 °F /  19.4 °C 29.9in /  1011.9hPa NE 12mph /  19.3km/h 20mph /  32.2km/h 47% 0in /  0.0mm
18:20 89.8 °F /  32.1 °C 67.5 °F /  19.7 °C 29.9in /  1011.7hPa NNE 12.3mph /  19.8km/h 11.5mph /  18.5km/h 48% 0in /  0.0mm
18:25 90 °F /  32.2 °C 66.9 °F /  19.4 °C 29.9in /  1011.7hPa NE 13mph /  20.9km/h 17mph /  27.4km/h 47% 0in /  0.0mm
18:30 90 °F /  32.2 °C 67.6 °F /  19.8 °C 29.9in /  1011.7hPa NE 10mph /  16.1km/h 18mph /  29km/h 48% 0in /  0.0mm
18:35 90 °F /  32.2 °C 67.6 °F /  19.8 °C 29.9in /  1011.4hPa NE 10mph /  16.1km/h 17mph /  27.4km/h 48% 0in /  0.0mm
18:40 89.8 °F /  32.1 °C 67.5 °F /  19.7 °C 29.9in /  1011.4hPa NE 10.7mph /  17.2km/h 16.1mph /  25.9km/h 48% 0in /  0.0mm
18:45 89.4 °F /  31.9 °C 67.3 °F /  19.6 °C 29.9in /  1011.4hPa NE 10mph /  16.1km/h 18mph /  29km/h 48% 0in /  0.0mm
18:50 89.4 °F /  31.9 °C 67.1 °F /  19.5 °C 29.9in /  1011.5hPa ENE 10.2mph /  16.4km/h 17.3mph /  27.8km/h 48% 0in /  0.0mm
18:55 89.4 °F /  31.9 °C 67.1 °F /  19.5 °C 29.9in /  1011.5hPa NE 10mph /  16.1km/h 16mph /  25.7km/h 48% 0in /  0.0mm
19:00 89.8 °F /  32.1 °C 67.5 °F /  19.7 °C 29.9in /  1011.5hPa NE 9mph /  14.5km/h 16mph /  25.7km/h 48% 0in /  0.0mm
19:05 89.8 °F /  32.1 °C 67.5 °F /  19.7 °C 29.9in /  1011.4hPa NE 9mph /  14.5km/h 16mph /  25.7km/h 48% 0in /  0.0mm
19:10 89.8 °F /  32.1 °C 67.5 °F /  19.7 °C 29.9in /  1011.4hPa NE 9mph /  14.5km/h 16mph /  25.7km/h 48% 0in /  0.0mm
19:15 90 °F /  32.2 °C 67.6 °F /  19.8 °C 29.9in /  1011.4hPa ENE 9mph /  14.5km/h 12mph /  19.3km/h 48% 0in /  0.0mm
19:20 89.8 °F /  32.1 °C 67.5 °F /  19.7 °C 29.9in /  1011.4hPa ENE 6.9mph /  11.1km/h 10.4mph /  16.7km/h 48% 0in /  0.0mm
19:25 89.8 °F /  32.1 °C 66.2 °F /  19 °C 29.9in /  1011.4hPa ENE 7mph /  11.3km/h 13mph /  20.9km/h 46% 0in /  0.0mm
19:30 89.8 °F /  32.1 °C 66.9 °F /  19.4 °C 29.9in /  1011.4hPa Este 6.4mph /  10.3km/h 6.2mph /  10km/h 47% 0in /  0.0mm
19:35 89.8 °F /  32.1 °C 66.9 °F /  19.4 °C 29.9in /  1011.3hPa ESE 7mph /  11.3km/h 7mph /  11.3km/h 47% 0in /  0.0mm
19:40 89.4 °F /  31.9 °C 65.8 °F /  18.8 °C 29.9in /  1011.3hPa ESE 5.4mph /  8.7km/h 12.7mph /  20.4km/h 46% 0in /  0.0mm
19:45 89.2 °F /  31.8 °C 66.4 °F /  19.1 °C 29.9in /  1011.3hPa ESE 6mph /  9.7km/h 12mph /  19.3km/h 47% 0in /  0.0mm
19:50 89.1 °F /  31.7 °C 66.2 °F /  19 °C 29.9in /  1011.4hPa ESE 6.9mph /  11.1km/h 10.7mph /  17.2km/h 47% 0in /  0.0mm
19:55 88.9 °F /  31.6 °C 66 °F /  18.9 °C 29.9in /  1011.4hPa ESE 7mph /  11.3km/h 11mph /  17.7km/h 47% 0in /  0.0mm
20:00 88.9 °F /  31.6 °C 66.6 °F /  19.2 °C 29.9in /  1011.4hPa SE 7mph /  11.3km/h 15mph /  24.1km/h 48% 0in /  0.0mm
20:05 88.3 °F /  31.3 °C 66.7 °F /  19.3 °C 29.9in /  1011.6hPa SE 7mph /  11.3km/h 15mph /  24.1km/h 49% 0in /  0.0mm
20:10 88 °F /  31.1 °C 66.9 °F /  19.4 °C 29.9in /  1011.6hPa SE 9mph /  14.5km/h 17mph /  27.4km/h 50% 0in /  0.0mm
20:15 87.4 °F /  30.8 °C 67.1 °F /  19.5 °C 29.9in /  1011.6hPa ESE 9mph /  14.5km/h 14mph /  22.5km/h 51% 0in /  0.0mm
20:20 87.1 °F /  30.6 °C 66.7 °F /  19.3 °C 29.9in /  1011.8hPa ESE 9.7mph /  15.6km/h 15mph /  24.1km/h 51% 0in /  0.0mm
20:25 86.9 °F /  30.5 °C 66.6 °F /  19.2 °C 29.9in /  1011.8hPa ESE 9mph /  14.5km/h 15mph /  24.1km/h 51% 0in /  0.0mm
20:30 86.5 °F /  30.3 °C 66.7 °F /  19.3 °C 29.9in /  1011.8hPa SE 10mph /  16.1km/h 11.5mph /  18.5km/h 52% 0in /  0.0mm
20:35 86.4 °F /  30.2 °C 66.7 °F /  19.3 °C 29.9in /  1012.1hPa ESE 10mph /  16.1km/h 20mph /  32.2km/h 52% 0in /  0.0mm
20:40 85.8 °F /  29.9 °C 66.7 °F /  19.3 °C 29.9in /  1012.1hPa SE 10mph /  16.1km/h 22mph /  35.4km/h 53% 0in /  0.0mm
20:45 85.6 °F /  29.8 °C 67.1 °F /  19.5 °C 29.9in /  1012.1hPa SE 10mph /  16.1km/h 17mph /  27.4km/h 54% 0in /  0.0mm
20:50 85.3 °F /  29.6 °C 66.7 °F /  19.3 °C 29.9in /  1012.7hPa ESE 10.2mph /  16.4km/h 16.1mph /  25.9km/h 54% 0in /  0.0mm
20:55 84.9 °F /  29.4 °C 67.5 °F /  19.7 °C 29.9in /  1012.7hPa ESE 10mph /  16.1km/h 18mph /  29km/h 56% 0in /  0.0mm
21:00 84.4 °F /  29.1 °C 68 °F /  20 °C 29.9in /  1012.7hPa ESE 12mph /  19.3km/h 20mph /  32.2km/h 58% 0in /  0.0mm
21:05 83.8 °F /  28.8 °C 68.5 °F /  20.3 °C 29.9in /  1012.7hPa ESE 12mph /  19.3km/h 15mph /  24.1km/h 60% 0in /  0.0mm
21:10 83.8 °F /  28.8 °C 69.1 °F /  20.6 °C 29.9in /  1012.7hPa ESE 9mph /  14.5km/h 12mph /  19.3km/h 61% 0in /  0.0mm
21:15 83.7 °F /  28.7 °C 69.3 °F /  20.7 °C 29.9in /  1012.7hPa Este 8.7mph /  14km/h 11.5mph /  18.5km/h 62% 0in /  0.0mm
21:20 83.5 °F /  28.6 °C 70 °F /  21.1 °C 29.9in /  1012.8hPa ESE 7.6mph /  12.2km/h 10.4mph /  16.7km/h 64% 0in /  0.0mm
21:25 83.5 °F /  28.6 °C 70.3 °F /  21.3 °C 29.9in /  1012.8hPa ESE 8mph /  12.9km/h 13mph /  20.9km/h 65% 0in /  0.0mm
21:30 82.9 °F /  28.3 °C 70.3 °F /  21.3 °C 29.9in /  1012.8hPa ESE 7.6mph /  12.2km/h 9.2mph /  14.8km/h 66% 0in /  0.0mm
21:35 82.8 °F /  28.2 °C 70.3 °F /  21.3 °C 29.9in /  1013.0hPa ESE 8mph /  12.9km/h 14mph /  22.5km/h 66% 0in /  0.0mm
21:43 82.6 °F /  28.1 °C 70.7 °F /  21.5 °C 29.9in /  1013.0hPa ESE 6.4mph /  10.3km/h 11.5mph /  18.5km/h 67.5% 0in /  0.0mm
22:00 81.9 °F /  27.7 °C 70.7 °F /  21.5 °C 29.9in /  1013.0hPa ESE 6.2mph /  10km/h 10.4mph /  16.7km/h 69% 0in /  0.0mm
22:05 81.9 °F /  27.7 °C 70.7 °F /  21.5 °C 29.9in /  1012.9hPa ENE 6.2mph /  10km/h 8.1mph /  13km/h 69% 0in /  0.0mm
22:10 81.9 °F /  27.7 °C 70.7 °F /  21.5 °C 29.9in /  1012.9hPa ESE 5.2mph /  8.4km/h 6.9mph /  11.1km/h 69% 0in /  0.0mm
22:15 81.7 °F /  27.6 °C 70.5 °F /  21.4 °C 29.9in /  1012.9hPa ESE 5.2mph /  8.4km/h 5.8mph /  9.3km/h 69% 0in /  0.0mm
22:20 81.9 °F /  27.7 °C 70.7 °F /  21.5 °C 29.9in /  1013.2hPa NE 4.3mph /  6.9km/h 5.8mph /  9.3km/h 69% 0in /  0.0mm
22:25 81.9 °F /  27.7 °C 70.7 °F /  21.5 °C 29.9in /  1013.2hPa ESE 4.3mph /  6.9km/h 5.4mph /  8.7km/h 69% 0in /  0.0mm
22:30 82 °F /  27.8 °C 70.9 °F /  21.6 °C 29.9in /  1013.2hPa Este 3.1mph /  5km/h 5.8mph /  9.3km/h 69% 0in /  0.0mm
22:35 81.9 °F /  27.7 °C 70.7 °F /  21.5 °C 29.9in /  1013.5hPa ESE 3.1mph /  5km/h 2.3mph /  3.7km/h 69% 0in /  0.0mm
22:40 81.9 °F /  27.7 °C 70.7 °F /  21.5 °C 29.9in /  1013.5hPa NE 2.4mph /  3.9km/h 4.6mph /  7.4km/h 69% 0in /  0.0mm
22:45 81.7 °F /  27.6 °C 70.5 °F /  21.4 °C 29.9in /  1013.5hPa NE 2.4mph /  3.9km/h 3.5mph /  5.6km/h 69% 0in /  0.0mm
22:50 81.3 °F /  27.4 °C 70.5 °F /  21.4 °C 29.9in /  1013.7hPa ENE 2.9mph /  4.7km/h 4.6mph /  7.4km/h 70% 0in /  0.0mm
22:55 81.1 °F /  27.3 °C 70.3 °F /  21.3 °C 29.9in /  1013.7hPa NE 2.9mph /  4.7km/h 4.6mph /  7.4km/h 70% 0in /  0.0mm
23:00 81.1 °F /  27.3 °C 70.9 °F /  21.6 °C 29.9in /  1013.7hPa NE 3.1mph /  5km/h 4.6mph /  7.4km/h 71% 0in /  0.0mm
23:05 81 °F /  27.2 °C 70.7 °F /  21.5 °C 29.9in /  1013.8hPa NE 3.1mph /  5km/h 4.7mph /  7.6km/h 71% 0in /  0.0mm
23:10 81 °F /  27.2 °C 70.7 °F /  21.5 °C 29.9in /  1013.8hPa NNE 3.6mph /  5.8km/h 5.8mph /  9.3km/h 71% 0in /  0.0mm
23:15 80.6 °F /  27 °C 70.7 °F /  21.5 °C 29.9in /  1013.8hPa NNE 3.6mph /  5.8km/h 8.1mph /  13km/h 72% 0in /  0.0mm
23:20 80.4 °F /  26.9 °C 70.5 °F /  21.4 °C 29.9in /  1013.8hPa NNE 5.2mph /  8.4km/h 5.8mph /  9.3km/h 72% 0in /  0.0mm
23:25 80.2 °F /  26.8 °C 70.3 °F /  21.3 °C 29.9in /  1013.8hPa NNE 5.2mph /  8.4km/h 4.6mph /  7.4km/h 72% 0in /  0.0mm
23:30 80.2 °F /  26.8 °C 70.3 °F /  21.3 °C 29.9in /  1013.8hPa NE 3.1mph /  5km/h 4.6mph /  7.4km/h 72% 0in /  0.0mm
23:35 80.2 °F /  26.8 °C 70.3 °F /  21.3 °C 29.9in /  1014.0hPa NE 3.1mph /  5km/h 4mph /  6.4km/h 72% 0in /  0.0mm
23:40 80.2 °F /  26.8 °C 70.3 °F /  21.3 °C 29.9in /  1014.0hPa ESE 3.1mph /  5km/h 3.5mph /  5.6km/h 72% 0in /  0.0mm
23:45 80.4 °F /  26.9 °C 70.5 °F /  21.4 °C 29.9in /  1014.0hPa ESE 3.1mph /  5km/h 4.6mph /  7.4km/h 72% 0in /  0.0mm
23:50 80.4 °F /  26.9 °C 70.5 °F /  21.4 °C 29.9in /  1014.1hPa SE 3.6mph /  5.8km/h 6.9mph /  11.1km/h 72% 0in /  0.0mm
23:55 80.2 °F /  26.8 °C 70.9 °F /  21.6 °C 29.9in /  1014.1hPa SE 3.6mph /  5.8km/h 4.6mph /  7.4km/h 73% 0in /  0.0mm
Murcia-Puente Tocinos, España
Compliments of Weather Underground - 3 mb

La estación de MeteoMurcia.com, publica sus datos en los siguientes proyectos:

Weather Underground PWS IMURCIAP2 Meteoclimatic www.awekas.at

W3Counter
Web Analytics